createdAt,value
2018-02-24T00:00:22.967Z,27.45
2018-02-24T00:02:50.558Z,31.05
2018-02-24T00:05:18.104Z,28.83
2018-02-24T00:07:45.675Z,28.80
2018-02-24T00:10:13.309Z,28.70
2018-02-24T00:12:41.162Z,20.35
2018-02-24T00:15:10.037Z,21.87
2018-02-24T00:17:37.600Z,25.33
2018-02-24T00:20:05.262Z,27.55
2018-02-24T00:22:42.528Z,18.98
2018-02-24T00:25:10.417Z,22.15
2018-02-24T00:27:38.025Z,28.52
2018-02-24T00:30:05.661Z,31.48
2018-02-24T00:32:33.540Z,30.25
2018-02-24T00:35:01.107Z,20.62
2018-02-24T00:37:28.681Z,26.50
2018-02-24T00:39:56.281Z,18.62
2018-02-24T00:42:24.422Z,28.05
2018-02-24T00:44:51.967Z,21.65
2018-02-24T00:47:19.552Z,24.33
2018-02-24T00:49:47.880Z,21.58
2018-02-24T00:52:15.448Z,21.10
2018-02-24T00:54:43.010Z,20.92
2018-02-24T00:57:11.326Z,23.70
2018-02-24T00:59:38.988Z,26.25
2018-02-24T01:02:06.568Z,23.42
2018-02-24T01:04:34.213Z,21.30
2018-02-24T01:07:01.817Z,21.35
2018-02-24T01:09:29.394Z,26.15
2018-02-24T01:11:57.033Z,25.80
2018-02-24T01:14:25.551Z,27.62
2018-02-24T01:16:54.545Z,18.27
2018-02-24T01:19:22.144Z,29.23
2018-02-24T01:21:50.608Z,25.83
2018-02-24T01:24:18.199Z,30.77
2018-02-24T01:26:46.508Z,29.50
2018-02-24T01:29:14.459Z,25.05
2018-02-24T01:31:41.998Z,25.20
2018-02-24T01:34:09.552Z,14.98
2018-02-24T01:36:37.129Z,28.70
2018-02-24T01:39:04.756Z,27.77
2018-02-24T01:41:32.761Z,25.15
2018-02-24T01:44:01.304Z,31.80
2018-02-24T01:46:28.874Z,30.70
2018-02-24T01:48:56.571Z,28.12
2018-02-24T01:51:25.922Z,21.02
2018-02-24T01:53:54.884Z,27.10
2018-02-24T01:56:22.513Z,27.77
2018-02-24T01:58:50.975Z,32.13
2018-02-24T02:01:18.567Z,21.85
2018-02-24T02:03:46.218Z,29.55
2018-02-24T02:06:13.892Z,28.62
2018-02-24T02:08:42.323Z,27.42
2018-02-24T02:11:09.943Z,31.85
2018-02-24T02:13:37.486Z,32.00
2018-02-24T02:16:05.147Z,31.27
2018-02-24T02:18:32.700Z,28.17
2018-02-24T02:21:00.452Z,32.20
2018-02-24T02:23:28.969Z,31.83
2018-02-24T02:25:56.573Z,29.50
2018-02-24T02:28:25.066Z,29.42
2018-02-24T02:30:52.630Z,29.08
2018-02-24T02:33:21.709Z,32.40
2018-02-24T02:35:49.335Z,29.87
2018-02-24T02:38:16.918Z,32.20
2018-02-24T02:40:45.246Z,32.70
2018-02-24T02:43:12.873Z,20.77
2018-02-24T02:45:41.248Z,31.98
2018-02-24T02:48:08.904Z,26.62
2018-02-24T02:50:36.442Z,21.98
2018-02-24T02:53:04.809Z,31.25
2018-02-24T02:55:32.359Z,24.92
2018-02-24T02:57:59.964Z,29.60
2018-02-24T03:00:27.555Z,28.27
2018-02-24T03:02:56.112Z,24.45
2018-02-24T03:05:24.790Z,26.42
2018-02-24T03:07:53.766Z,27.98
2018-02-24T03:10:21.337Z,26.17
2018-02-24T03:12:49.227Z,29.75
2018-02-24T03:15:17.963Z,33.03
2018-02-24T03:17:45.596Z,29.95
2018-02-24T03:20:13.134Z,32.40
2018-02-24T03:22:41.480Z,29.20
2018-02-24T03:25:09.784Z,29.37
2018-02-24T03:27:37.402Z,31.75
2018-02-24T03:30:06.798Z,26.23
2018-02-24T03:32:35.107Z,33.03
2018-02-24T03:35:02.730Z,31.02
2018-02-24T03:37:30.284Z,29.52
2018-02-24T03:39:57.865Z,28.27
2018-02-24T03:42:26.965Z,26.37
2018-02-24T03:44:56.297Z,29.00
2018-02-24T03:47:24.647Z,29.08
2018-02-24T03:49:52.971Z,30.37
2018-02-24T03:52:20.596Z,28.87
2018-02-24T03:54:48.214Z,29.25
2018-02-24T03:57:15.800Z,21.35
2018-02-24T03:59:44.309Z,31.02
2018-02-24T04:02:12.684Z,29.70
2018-02-24T04:04:40.250Z,29.23
2018-02-24T04:07:07.844Z,20.88
2018-02-24T04:09:35.415Z,20.35
2018-02-24T04:12:03.951Z,19.33
2018-02-24T04:14:31.520Z,30.40
2018-02-24T04:16:59.857Z,23.38
2018-02-24T04:19:27.452Z,27.67
2018-02-24T04:21:55.656Z,31.02
2018-02-24T04:24:23.840Z,22.20
2018-02-24T04:26:52.167Z,31.48
2018-02-24T04:29:19.724Z,29.48
2018-02-24T04:31:47.281Z,27.50
2018-02-24T04:34:15.614Z,26.95
2018-02-24T04:36:43.172Z,21.08
2018-02-24T04:39:10.807Z,29.87
2018-02-24T04:41:38.361Z,28.55
2018-02-24T04:44:05.926Z,34.47
2018-02-24T04:46:33.515Z,28.50
2018-02-24T04:49:01.113Z,28.25
2018-02-24T04:51:28.684Z,28.40
2018-02-24T04:53:57.199Z,24.45
2018-02-24T04:56:25.673Z,31.27
2018-02-24T04:58:53.878Z,33.17
2018-02-24T05:01:22.224Z,31.98
2018-02-24T05:03:49.766Z,30.70
2018-02-24T05:06:17.400Z,34.15
2018-02-24T05:08:44.949Z,30.48
2018-02-24T05:11:12.526Z,26.17
2018-02-24T05:13:40.115Z,35.05
2018-02-24T05:16:07.685Z,32.55
2018-02-24T05:18:35.237Z,32.35
2018-02-24T05:21:02.963Z,29.77
2018-02-24T05:23:30.557Z,25.23
2018-02-24T05:25:58.930Z,32.20
2018-02-24T05:28:27.363Z,30.37
2018-02-24T05:30:57.089Z,29.23
2018-02-24T05:33:25.905Z,29.75
2018-02-24T05:35:55.395Z,21.67
2018-02-24T05:38:23.055Z,32.35
2018-02-24T05:40:50.607Z,31.75
2018-02-24T05:43:18.144Z,28.45
2018-02-24T05:45:45.768Z,25.25
2018-02-24T05:48:14.265Z,22.42
2018-02-24T05:50:41.837Z,22.33
2018-02-24T05:53:09.448Z,26.83
2018-02-24T05:55:37.041Z,25.90
2018-02-24T05:58:04.656Z,27.67
2018-02-24T06:00:32.255Z,28.87
2018-02-24T06:03:00.709Z,30.20
2018-02-24T06:05:29.072Z,27.17
2018-02-24T06:07:57.393Z,28.27
2018-02-24T06:10:25.899Z,25.98
2018-02-24T06:12:54.909Z,12.40
2018-02-24T06:15:22.467Z,32.90
2018-02-24T06:17:50.050Z,31.35
2018-02-24T06:20:17.594Z,25.77
2018-02-24T06:22:45.230Z,30.23
2018-02-24T06:25:12.791Z,30.42
2018-02-24T06:27:40.429Z,30.40
2018-02-24T06:30:08.052Z,23.67
2018-02-24T06:32:35.814Z,26.27
2018-02-24T06:35:03.354Z,32.55
2018-02-24T06:37:30.898Z,29.23
2018-02-24T06:39:58.512Z,29.60
2018-02-24T06:42:26.212Z,27.73
2018-02-24T06:44:54.496Z,27.75
2018-02-24T06:47:22.829Z,27.10
2018-02-24T06:49:50.430Z,29.50
2018-02-24T06:52:17.971Z,20.15
2018-02-24T06:54:45.550Z,28.58
2018-02-24T06:57:13.094Z,31.17
2018-02-24T06:59:40.823Z,30.83
2018-02-24T07:02:08.369Z,27.33
2018-02-24T07:04:35.921Z,26.87
2018-02-24T07:07:03.566Z,21.17
2018-02-24T07:09:31.128Z,20.98
2018-02-24T07:11:59.079Z,27.20
2018-02-24T07:14:26.699Z,25.17
2018-02-24T07:16:56.039Z,29.63
2018-02-24T07:19:24.331Z,21.60
2018-02-24T07:21:51.943Z,26.48
2018-02-24T07:24:19.607Z,28.62
2018-02-24T07:26:47.195Z,28.48
2018-02-24T07:32:08.046Z,24.85
2018-02-24T07:35:00.668Z,21.10
2018-02-24T07:37:28.316Z,12.75
2018-02-24T07:39:56.137Z,26.20
2018-02-24T07:42:24.527Z,26.50
2018-02-24T07:44:53.083Z,27.08
2018-02-24T07:47:21.285Z,25.83
2018-02-24T07:49:50.655Z,29.42
2018-02-24T07:52:18.223Z,22.95
2018-02-24T07:54:46.614Z,16.30
2018-02-24T07:57:14.354Z,25.30
2018-02-24T07:59:41.951Z,18.23
2018-02-24T08:02:09.586Z,24.67
2018-02-24T08:04:37.130Z,24.92
2018-02-24T08:07:04.794Z,25.05
2018-02-24T08:09:32.403Z,19.92
2018-02-24T08:12:00.075Z,24.52
2018-02-24T08:14:27.737Z,29.00
2018-02-24T08:16:56.158Z,21.20
2018-02-24T08:19:24.334Z,21.00
2018-02-24T08:21:51.988Z,28.48
2018-02-24T08:24:21.594Z,26.05
2018-02-24T08:26:49.314Z,27.27
2018-02-24T08:29:16.997Z,22.10
2018-02-24T08:31:46.297Z,26.75
2018-02-24T08:34:14.627Z,16.67
2018-02-24T08:36:42.236Z,27.30
2018-02-24T08:39:09.912Z,23.35
2018-02-24T08:41:37.465Z,14.73
2018-02-24T08:44:05.768Z,22.83
2018-02-24T08:46:33.645Z,23.05
2018-02-24T08:49:01.243Z,25.20
2018-02-24T08:51:28.842Z,21.73
2018-02-24T08:53:56.534Z,23.17
2018-02-24T08:56:25.652Z,24.20
2018-02-24T08:58:53.812Z,17.15
2018-02-24T09:01:21.413Z,17.42
2018-02-24T09:03:48.944Z,27.05
2018-02-24T09:06:16.506Z,21.45
2018-02-24T09:08:44.044Z,22.17
2018-02-24T09:11:11.684Z,26.98
2018-02-24T09:13:39.225Z,24.55
2018-02-24T09:16:06.800Z,20.75
2018-02-24T09:18:34.409Z,26.05
2018-02-24T09:21:02.105Z,24.00
2018-02-24T09:23:29.748Z,24.90
2018-02-24T09:25:57.341Z,21.30
2018-02-24T09:28:25.760Z,25.15
2018-02-24T09:30:54.926Z,21.85
2018-02-24T09:33:22.523Z,19.48
2018-02-24T09:35:50.092Z,15.43
2018-02-24T09:38:17.721Z,23.25
2018-02-24T09:40:45.303Z,21.08
2018-02-24T09:43:12.923Z,20.73
2018-02-24T09:45:40.658Z,18.80
2018-02-24T09:48:08.259Z,19.33
2018-02-24T09:50:35.863Z,23.05
2018-02-24T09:53:03.438Z,22.90
2018-02-24T09:55:33.327Z,22.67
2018-02-24T09:58:00.963Z,15.80
2018-02-24T10:00:29.435Z,17.52
2018-02-24T10:02:56.974Z,11.40
2018-02-24T10:05:25.128Z,13.20
2018-02-24T10:07:52.732Z,18.55
2018-02-24T10:10:20.447Z,20.08
2018-02-24T10:12:48.105Z,20.20
2018-02-24T10:15:16.673Z,17.08
2018-02-24T10:17:44.247Z,21.92
2018-02-24T10:20:13.612Z,20.05
2018-02-24T10:22:41.324Z,17.62
2018-02-24T10:25:08.936Z,15.80
2018-02-24T10:27:36.549Z,20.73
2018-02-24T10:30:04.357Z,19.10
2018-02-24T10:32:31.899Z,18.08
2018-02-24T10:34:59.506Z,18.60
2018-02-24T10:37:27.852Z,19.52
2018-02-24T10:39:56.204Z,13.32
2018-02-24T10:42:24.304Z,15.52
2018-02-24T10:44:51.941Z,19.10
2018-02-24T10:47:20.320Z,20.12
2018-02-24T10:49:47.905Z,19.10
2018-02-24T10:52:15.487Z,18.05
2018-02-24T10:54:43.792Z,17.85
2018-02-24T10:57:12.383Z,17.73
2018-02-24T10:59:39.919Z,15.68
2018-02-24T11:02:07.507Z,18.55
2018-02-24T11:04:35.249Z,15.95
2018-02-24T11:07:03.922Z,17.25
2018-02-24T11:09:31.460Z,18.27
2018-02-24T11:11:59.031Z,9.88
2018-02-24T11:14:26.805Z,16.98
2018-02-24T11:16:58.385Z,17.25
2018-02-24T11:19:26.046Z,18.15
2018-02-24T11:21:57.984Z,11.32
2018-02-24T11:24:26.082Z,15.55
2018-02-24T11:26:54.609Z,17.12
2018-02-24T11:29:22.300Z,15.68
2018-02-24T11:31:51.852Z,15.13
2018-02-24T11:34:19.474Z,15.77
2018-02-24T11:36:47.828Z,17.45
2018-02-24T11:39:15.527Z,11.88
2018-02-24T11:41:43.495Z,13.88
2018-02-24T11:44:11.069Z,12.77
2018-02-24T11:46:38.639Z,13.35
2018-02-24T11:49:06.603Z,13.62
2018-02-24T11:51:34.215Z,16.92
2018-02-24T11:54:03.088Z,17.10
2018-02-24T11:56:30.674Z,14.63
2018-02-24T11:58:59.088Z,13.98
2018-02-24T12:01:27.514Z,14.48
2018-02-24T12:03:56.635Z,11.63
2018-02-24T12:06:25.808Z,9.98
2018-02-24T12:08:53.917Z,13.50
2018-02-24T12:11:21.573Z,12.10
2018-02-24T12:13:49.916Z,11.75
2018-02-24T12:16:17.652Z,13.10
2018-02-24T12:18:46.102Z,11.70
2018-02-24T12:21:13.787Z,13.32
2018-02-24T12:23:44.080Z,7.75
2018-02-24T12:26:11.750Z,14.32
2018-02-24T12:28:40.346Z,12.00
2018-02-24T12:31:07.925Z,11.43
2018-02-24T12:33:36.479Z,12.10
2018-02-24T12:36:05.324Z,10.27
2018-02-24T12:38:32.960Z,12.82
2018-02-24T12:41:01.366Z,11.48
2018-02-24T12:43:29.864Z,12.35
2018-02-24T12:45:57.594Z,10.55
2018-02-24T12:48:26.113Z,11.38
2018-02-24T12:50:54.608Z,11.10
2018-02-24T12:53:22.308Z,10.43
2018-02-24T12:55:49.873Z,12.63
2018-02-24T12:58:17.414Z,11.70
2018-02-24T13:00:45.023Z,8.57
2018-02-24T13:03:12.581Z,9.43
2018-02-24T13:05:40.207Z,9.45
2018-02-24T13:08:08.548Z,11.10
2018-02-24T13:10:36.324Z,12.95
2018-02-24T13:13:04.725Z,9.57
2018-02-24T13:15:33.303Z,11.10
2018-02-24T13:18:01.055Z,9.00
2018-02-24T13:20:28.689Z,10.57
2018-02-24T13:22:56.641Z,12.37
2018-02-24T13:25:26.222Z,12.05
2018-02-24T13:27:54.873Z,11.00
2018-02-24T13:30:23.992Z,10.05
2018-02-24T13:32:52.422Z,13.70
2018-02-24T13:35:20.793Z,8.80
2018-02-24T13:37:49.203Z,12.93
2018-02-24T13:40:16.783Z,12.05
2018-02-24T13:42:44.423Z,12.20
2018-02-24T13:45:12.078Z,9.40
2018-02-24T13:47:41.205Z,12.32
2018-02-24T13:50:08.895Z,13.65
2018-02-24T13:52:36.559Z,13.40
2018-02-24T13:55:04.401Z,8.77
2018-02-24T13:57:32.137Z,11.50
2018-02-24T13:59:59.903Z,9.25
2018-02-24T14:02:27.639Z,11.45
2018-02-24T14:04:56.039Z,10.30
2018-02-24T14:07:25.119Z,13.13
2018-02-24T14:09:53.804Z,11.88
2018-02-24T14:12:22.650Z,13.10
2018-02-24T14:14:50.312Z,8.43
2018-02-24T14:17:18.752Z,12.00
2018-02-24T14:19:46.309Z,9.45
2018-02-24T14:22:14.627Z,13.65
2018-02-24T14:24:42.194Z,13.48
2018-02-24T14:27:09.804Z,10.40
2018-02-24T14:29:37.451Z,12.88
2018-02-24T14:32:05.136Z,12.27
2018-02-24T14:34:32.758Z,11.77
2018-02-24T14:37:00.298Z,13.48
2018-02-24T14:39:28.194Z,9.93
2018-02-24T14:41:56.095Z,11.30
2018-02-24T14:44:25.571Z,13.00
2018-02-24T14:46:53.759Z,12.93
2018-02-24T14:49:21.375Z,8.75
2018-02-24T14:51:48.918Z,11.80
2018-02-24T14:54:17.265Z,10.43
2018-02-24T14:56:44.838Z,10.07
2018-02-24T14:59:12.736Z,12.95
2018-02-24T15:01:40.283Z,11.90
2018-02-24T15:04:10.125Z,9.38
2018-02-24T15:06:37.827Z,13.05
2018-02-24T15:09:05.650Z,13.23
2018-02-24T15:11:33.281Z,10.98
2018-02-24T15:14:00.999Z,12.90
2018-02-24T15:16:28.627Z,10.98
2018-02-24T15:18:56.338Z,12.25
2018-02-24T15:21:24.602Z,12.88
2018-02-24T15:23:53.762Z,14.20
2018-02-24T15:26:21.480Z,13.25
2018-02-24T15:28:49.042Z,10.10
2018-02-24T15:31:18.518Z,10.73
2018-02-24T15:33:46.459Z,13.43
2018-02-24T15:36:14.074Z,13.23
2018-02-24T15:38:42.002Z,11.75
2018-02-24T15:41:10.363Z,13.00
2018-02-24T15:43:38.705Z,12.50
2018-02-24T15:46:06.259Z,11.85
2018-02-24T15:48:33.870Z,13.30
2018-02-24T15:51:01.481Z,13.85
2018-02-24T15:53:29.138Z,12.23
2018-02-24T15:55:58.365Z,13.23
2018-02-24T15:58:25.975Z,13.43
2018-02-24T16:00:53.753Z,14.52
2018-02-24T16:03:21.530Z,13.35
2018-02-24T16:05:49.851Z,13.57
2018-02-24T16:08:17.430Z,10.90
2018-02-24T16:10:45.038Z,9.43
2018-02-24T16:13:12.596Z,12.50
2018-02-24T16:15:40.162Z,9.90
2018-02-24T16:18:08.524Z,12.80
2018-02-24T16:20:36.126Z,12.50
2018-02-24T16:23:03.835Z,13.60
2018-02-24T16:25:31.402Z,12.35
2018-02-24T16:27:59.820Z,13.75
2018-02-24T16:30:27.428Z,11.40
2018-02-24T16:32:55.688Z,13.30
2018-02-24T16:35:25.362Z,12.82
2018-02-24T16:37:54.318Z,13.40
2018-02-24T16:40:21.865Z,12.23
2018-02-24T16:42:49.472Z,13.07
2018-02-24T16:45:17.022Z,12.45
2018-02-24T16:47:45.601Z,6.78
2018-02-24T16:50:13.173Z,12.68
2018-02-24T16:52:40.737Z,13.20
2018-02-24T16:55:09.089Z,9.95
2018-02-24T16:57:36.672Z,12.93
2018-02-24T17:00:04.297Z,11.95
2018-02-24T17:02:31.907Z,11.57
2018-02-24T17:04:59.430Z,6.70
2018-02-24T17:07:27.060Z,11.48
2018-02-24T17:09:55.672Z,10.63
2018-02-24T17:12:24.715Z,7.85
2018-02-24T17:14:52.318Z,12.50
2018-02-24T17:17:20.649Z,10.63
2018-02-24T17:19:48.244Z,11.95
2018-02-24T17:22:15.806Z,7.60
2018-02-24T17:24:44.303Z,10.85
2018-02-24T17:27:12.788Z,11.00
2018-02-24T17:29:40.401Z,12.30
2018-02-24T17:32:08.041Z,9.45
2018-02-24T17:34:35.611Z,9.00
2018-02-24T17:37:03.165Z,11.12
2018-02-24T17:39:31.579Z,11.90
2018-02-24T17:41:59.196Z,8.50
2018-02-24T17:44:26.840Z,7.82
2018-02-24T17:46:54.797Z,11.95
2018-02-24T17:49:22.365Z,14.90
2018-02-24T17:51:50.886Z,11.93
2018-02-24T17:54:18.942Z,10.23
2018-02-24T17:56:46.504Z,13.35
2018-02-24T17:59:14.071Z,9.23
2018-02-24T18:01:41.669Z,9.63
2018-02-24T18:04:09.355Z,7.78
2018-02-24T18:06:36.934Z,13.20
2018-02-24T18:09:05.450Z,15.00
2018-02-24T18:11:32.978Z,11.75
2018-02-24T18:14:01.557Z,10.43
2018-02-24T18:16:29.439Z,14.23
2018-02-24T18:18:57.029Z,13.10
2018-02-24T18:21:25.477Z,10.27
2018-02-24T18:23:53.074Z,9.90
2018-02-24T18:26:20.668Z,11.68
2018-02-24T18:28:48.243Z,14.48
2018-02-24T18:31:16.597Z,13.02
2018-02-24T18:33:45.030Z,15.55
2018-02-24T18:36:12.675Z,10.75
2018-02-24T18:38:40.394Z,13.32
2018-02-24T18:41:08.003Z,17.10
2018-02-24T18:43:36.382Z,6.55
2018-02-24T18:46:05.616Z,10.60
2018-02-24T18:48:33.192Z,16.87
2018-02-24T18:51:00.771Z,17.12
2018-02-24T18:53:32.241Z,12.55
2018-02-24T18:56:00.729Z,16.17
2018-02-24T18:58:29.242Z,7.93
2018-02-24T19:00:57.616Z,15.85
2018-02-24T19:03:26.573Z,15.00
2018-02-24T19:05:55.955Z,14.82
2018-02-24T19:08:25.471Z,15.48
2018-02-24T19:10:54.471Z,13.35
2018-02-24T19:13:23.060Z,15.40
2018-02-24T19:15:52.349Z,13.13
2018-02-24T19:18:20.912Z,11.90
2018-02-24T19:20:48.565Z,9.82
2018-02-24T19:23:16.576Z,13.35
2018-02-24T19:25:45.095Z,12.37
2018-02-24T19:28:12.641Z,11.93
2018-02-24T19:30:40.334Z,11.57
2018-02-24T19:33:08.874Z,15.68
2018-02-24T19:35:36.450Z,14.32
2018-02-24T19:38:04.172Z,15.35
2018-02-24T19:40:32.107Z,9.65
2018-02-24T19:43:00.042Z,10.80
2018-02-24T19:45:27.629Z,9.65
2018-02-24T19:47:56.251Z,15.20
2018-02-24T19:50:25.635Z,15.57
2018-02-24T19:52:54.625Z,12.93
2018-02-24T19:55:22.171Z,9.77
2018-02-24T19:57:49.803Z,14.73
2018-02-24T20:00:17.382Z,10.48
2018-02-24T20:02:44.961Z,8.93
2018-02-24T20:05:12.536Z,13.07
2018-02-24T20:07:40.838Z,13.50
2018-02-24T20:10:09.367Z,12.93
2018-02-24T20:12:38.602Z,12.60
2018-02-24T20:15:06.180Z,13.35
2018-02-24T20:17:35.053Z,14.30
2018-02-24T20:20:03.531Z,8.98
2018-02-24T20:22:31.924Z,12.35
2018-02-24T20:24:59.530Z,8.65
2018-02-24T20:27:28.242Z,10.32
2018-02-24T20:29:55.955Z,10.50
2018-02-24T20:32:24.948Z,10.88
2018-02-24T20:34:52.572Z,12.50
2018-02-24T20:37:20.957Z,9.65
2018-02-24T20:39:48.629Z,11.20
2018-02-24T20:42:16.230Z,12.23
2018-02-24T20:44:44.014Z,11.25
2018-02-24T20:47:11.594Z,11.68
2018-02-24T20:49:39.959Z,7.65
2018-02-24T20:52:08.360Z,9.20
2018-02-24T20:54:36.084Z,9.25
2018-02-24T20:57:03.729Z,6.25
2018-02-24T20:59:32.095Z,8.00
2018-02-24T21:02:01.453Z,9.68
2018-02-24T21:04:29.970Z,10.85
2018-02-24T21:06:57.711Z,7.87
2018-02-24T21:09:26.277Z,9.43
2018-02-24T21:11:55.450Z,8.20
2018-02-24T21:14:23.120Z,9.27
2018-02-24T21:16:52.370Z,7.50
2018-02-24T21:19:20.080Z,8.10
2018-02-24T21:21:47.708Z,8.40
2018-02-24T21:24:15.350Z,10.88
2018-02-24T21:26:42.947Z,8.68
2018-02-24T21:29:10.596Z,11.18
2018-02-24T21:31:38.979Z,9.20
2018-02-24T21:34:06.666Z,10.30
2018-02-24T21:36:34.285Z,10.45
2018-02-24T21:39:01.994Z,10.88
2018-02-24T21:41:29.678Z,9.10
2018-02-24T21:43:57.617Z,6.20
2018-02-24T21:46:26.005Z,8.88
2018-02-24T21:48:53.840Z,10.13
2018-02-24T21:51:26.427Z,11.00
2018-02-24T21:53:55.789Z,6.90
2018-02-24T21:56:23.850Z,10.48
2018-02-24T21:58:51.507Z,9.80
2018-02-24T22:01:19.870Z,6.22
2018-02-24T22:03:47.464Z,8.35
2018-02-24T22:06:15.574Z,9.40
2018-02-24T22:08:45.046Z,8.85
2018-02-24T22:11:13.412Z,8.82
2018-02-24T22:13:41.026Z,6.40
2018-02-24T22:16:08.652Z,6.82
2018-02-24T22:18:36.265Z,7.43
2018-02-24T22:21:04.656Z,6.10
2018-02-24T22:23:32.280Z,7.30
2018-02-24T22:26:00.693Z,8.20
2018-02-24T22:28:28.683Z,8.00
2018-02-24T22:30:56.329Z,5.68
2018-02-24T22:33:25.838Z,7.45
2018-02-24T22:35:55.195Z,8.05
2018-02-24T22:38:23.904Z,5.85
2018-02-24T22:40:51.580Z,7.50
2018-02-24T22:43:19.191Z,6.60
2018-02-24T22:45:47.814Z,8.13
2018-02-24T22:48:21.055Z,6.07
2018-02-24T22:50:48.658Z,6.87
2018-02-24T22:53:18.014Z,8.02
2018-02-24T22:55:45.615Z,6.80
2018-02-24T22:58:14.061Z,7.70
2018-02-24T23:00:41.741Z,5.12
2018-02-24T23:06:05.620Z,5.62
2018-02-24T23:08:33.977Z,5.82
2018-02-24T23:11:01.615Z,4.70
2018-02-24T23:13:29.241Z,3.95
2018-02-24T23:15:56.823Z,5.68
2018-02-24T23:18:24.386Z,4.17
2018-02-24T23:20:52.008Z,5.35
2018-02-24T23:23:20.372Z,5.25
2018-02-24T23:25:48.707Z,3.85
2018-02-24T23:28:16.278Z,7.32
2018-02-24T23:30:43.878Z,7.30
2018-02-24T23:33:12.175Z,7.15
2018-02-24T23:35:39.771Z,6.25
2018-02-24T23:38:07.411Z,5.97
2018-02-24T23:40:35.295Z,6.40
2018-02-24T23:43:02.887Z,6.82
2018-02-24T23:45:31.206Z,6.95
2018-02-24T23:47:58.811Z,6.45
2018-02-24T23:50:26.377Z,7.15
2018-02-24T23:52:54.768Z,6.57
2018-02-24T23:55:23.193Z,5.30
2018-02-24T23:57:52.774Z,5.40
